createdAt,value
2023-02-03T00:00:00.742Z,3.55
2023-02-03T00:02:27.592Z,3.58
2023-02-03T00:04:54.444Z,3.50
2023-02-03T00:07:21.376Z,3.88
2023-02-03T00:09:48.500Z,3.53
2023-02-03T00:12:15.530Z,4.00
2023-02-03T00:14:42.588Z,3.70
2023-02-03T00:17:09.679Z,3.88
2023-02-03T00:19:37.207Z,3.65
2023-02-03T00:22:04.161Z,3.67
2023-02-03T00:24:31.058Z,3.75
2023-02-03T00:26:57.980Z,3.47
2023-02-03T00:29:26.054Z,3.20
2023-02-03T00:31:54.261Z,3.92
2023-02-03T00:34:21.810Z,3.50
2023-02-03T00:36:49.360Z,4.05
2023-02-03T00:39:16.682Z,3.60
2023-02-03T00:41:43.596Z,3.70
2023-02-03T00:44:11.108Z,4.00
2023-02-03T00:46:38.316Z,3.70
2023-02-03T00:49:05.931Z,3.60
2023-02-03T00:51:34.162Z,3.67
2023-02-03T00:54:01.068Z,4.13
2023-02-03T00:56:29.713Z,3.83
2023-02-03T00:58:56.711Z,3.85
2023-02-03T01:01:46.025Z,4.72
2023-02-03T01:04:25.838Z,5.40
2023-02-03T01:06:57.478Z,5.13
2023-02-03T01:09:24.765Z,5.40
2023-02-03T01:12:03.800Z,5.80
2023-02-03T01:14:31.905Z,4.60
2023-02-03T01:16:59.032Z,4.88
2023-02-03T01:19:26.090Z,4.57
2023-02-03T01:21:53.095Z,5.32
2023-02-03T01:24:20.076Z,4.40
2023-02-03T01:26:47.008Z,3.72
2023-02-03T01:29:14.662Z,4.10
2023-02-03T01:31:42.820Z,4.63
2023-02-03T01:34:16.421Z,3.75
2023-02-03T01:36:44.002Z,3.65
2023-02-03T01:39:11.327Z,3.10
2023-02-03T01:41:40.343Z,3.05
2023-02-03T01:44:52.595Z,3.35
2023-02-03T01:47:36.816Z,2.58
2023-02-03T01:50:08.811Z,3.42
2023-02-03T01:52:37.562Z,2.90
2023-02-03T01:55:09.570Z,2.65
2023-02-03T01:57:45.283Z,2.30
2023-02-03T02:00:13.378Z,2.30
2023-02-03T02:02:44.022Z,2.45
2023-02-03T02:05:47.032Z,2.00
2023-02-03T02:08:18.442Z,1.77
2023-02-03T02:10:45.973Z,2.00
2023-02-03T02:13:14.751Z,1.92
2023-02-03T02:16:02.363Z,2.08
2023-02-03T02:18:59.722Z,2.28
2023-02-03T02:21:51.438Z,2.17
2023-02-03T02:24:59.108Z,2.83
2023-02-03T02:28:00.913Z,2.38
2023-02-03T02:31:30.327Z,2.03
2023-02-03T02:37:09.509Z,3.08
2023-02-03T02:40:20.955Z,2.67
2023-02-03T02:43:04.778Z,2.97
2023-02-03T02:45:54.120Z,3.00
2023-02-03T02:48:31.686Z,3.22
2023-02-03T02:51:00.893Z,2.40
2023-02-03T02:53:39.618Z,4.13
2023-02-03T02:56:11.746Z,2.92
2023-02-03T02:58:42.674Z,3.67
2023-02-03T03:01:10.255Z,2.88
2023-02-03T03:03:40.576Z,3.33
2023-02-03T03:06:17.457Z,3.20
2023-02-03T03:08:56.989Z,3.00
2023-02-03T03:11:30.041Z,3.08
2023-02-03T03:13:59.083Z,3.30
2023-02-03T03:16:35.043Z,2.83
2023-02-03T03:19:09.935Z,3.10
2023-02-03T03:21:49.180Z,2.40
2023-02-03T03:24:37.960Z,2.50
2023-02-03T03:27:22.925Z,2.75
2023-02-03T03:30:01.628Z,2.50
2023-02-03T03:32:32.830Z,2.60
2023-02-03T03:35:02.562Z,2.42
2023-02-03T03:37:46.325Z,2.58
2023-02-03T03:40:34.938Z,2.60
2023-02-03T03:43:25.599Z,2.55
2023-02-03T03:46:12.462Z,2.83
2023-02-03T03:48:53.223Z,3.00
2023-02-03T03:51:32.271Z,2.38
2023-02-03T03:54:08.323Z,2.58
2023-02-03T03:56:45.958Z,2.17
2023-02-03T03:59:19.337Z,3.50
2023-02-03T04:01:49.442Z,3.22
2023-02-03T04:04:17.782Z,3.67
2023-02-03T04:06:44.687Z,3.53
2023-02-03T04:09:11.656Z,4.18
2023-02-03T04:11:57.074Z,3.50
2023-02-03T04:14:24.121Z,4.00
2023-02-03T04:16:50.994Z,4.63
2023-02-03T04:19:17.883Z,4.85
2023-02-03T04:21:44.767Z,4.80
2023-02-03T04:24:12.130Z,4.80
2023-02-03T04:26:39.677Z,5.70
2023-02-03T04:29:06.749Z,5.88
2023-02-03T04:31:34.046Z,6.13
2023-02-03T04:34:00.954Z,6.35
2023-02-03T04:36:28.102Z,5.78
2023-02-03T04:38:54.958Z,6.00
2023-02-03T04:41:22.008Z,6.28
2023-02-03T04:43:49.072Z,5.88
2023-02-03T04:46:15.982Z,5.95
2023-02-03T04:48:42.893Z,6.10
2023-02-03T04:51:09.943Z,6.32
2023-02-03T04:53:37.376Z,5.90
2023-02-03T04:56:04.764Z,6.88
2023-02-03T04:58:31.658Z,6.90
2023-02-03T05:01:49.803Z,7.22
2023-02-03T05:04:16.767Z,6.47
2023-02-03T05:06:43.773Z,7.10
2023-02-03T05:09:11.163Z,6.60
2023-02-03T05:12:32.081Z,6.43
2023-02-03T05:15:02.902Z,6.57
2023-02-03T05:17:55.847Z,6.68
2023-02-03T05:20:23.603Z,6.35
2023-02-03T05:22:50.517Z,6.22
2023-02-03T05:25:17.503Z,6.68
2023-02-03T05:27:44.444Z,6.68
2023-02-03T05:33:57.087Z,6.97
2023-02-03T05:36:24.248Z,7.40
2023-02-03T05:38:51.147Z,6.80
2023-02-03T05:45:12.900Z,6.93
2023-02-03T05:47:46.836Z,7.22
2023-02-03T05:50:16.041Z,6.93
2023-02-03T05:52:43.090Z,7.13
2023-02-03T05:56:01.360Z,6.43
2023-02-03T05:58:35.067Z,6.30
2023-02-03T06:01:01.961Z,6.35
2023-02-03T06:03:28.865Z,6.68
2023-02-03T06:05:56.432Z,6.78
2023-02-03T06:08:23.346Z,6.82
2023-02-03T06:10:50.244Z,6.90
2023-02-03T06:13:17.104Z,6.88
2023-02-03T06:16:28.599Z,7.05
2023-02-03T06:19:04.180Z,6.95
2023-02-03T06:21:33.193Z,6.93
2023-02-03T06:24:00.170Z,6.95
2023-02-03T06:26:27.048Z,7.25
2023-02-03T06:28:54.127Z,6.65
2023-02-03T06:31:22.355Z,7.25
2023-02-03T06:33:49.464Z,7.10
2023-02-03T06:36:30.685Z,6.60
2023-02-03T06:41:47.042Z,6.90
2023-02-03T06:44:23.238Z,6.18
2023-02-03T06:47:01.755Z,6.60
2023-02-03T06:49:30.141Z,5.85
2023-02-03T06:52:03.235Z,5.30
2023-02-03T06:54:37.198Z,5.65
2023-02-03T06:57:35.039Z,5.93
2023-02-03T07:00:22.865Z,6.20
2023-02-03T07:02:58.388Z,5.93
2023-02-03T07:05:27.802Z,5.57
2023-02-03T07:07:55.062Z,6.47
2023-02-03T07:10:22.041Z,6.13
2023-02-03T07:12:50.658Z,6.57
2023-02-03T07:15:40.990Z,5.93
2023-02-03T07:18:07.936Z,5.95
2023-02-03T07:20:34.782Z,5.35
2023-02-03T07:23:01.805Z,5.28
2023-02-03T07:25:29.322Z,5.13
2023-02-03T07:28:32.068Z,5.05
2023-02-03T07:30:59.108Z,5.05
2023-02-03T07:33:27.755Z,4.63
2023-02-03T07:35:57.216Z,4.30
2023-02-03T07:38:48.591Z,4.47
2023-02-03T07:41:17.970Z,4.53
2023-02-03T07:43:45.145Z,4.18
2023-02-03T07:46:12.517Z,3.75
2023-02-03T07:48:57.936Z,3.92
2023-02-03T07:51:24.921Z,4.25
2023-02-03T07:53:51.833Z,4.13
2023-02-03T07:56:18.749Z,3.78
2023-02-03T07:58:45.696Z,4.05
2023-02-03T08:01:17.037Z,5.45
2023-02-03T08:03:46.212Z,4.97
2023-02-03T08:06:13.152Z,4.90
2023-02-03T08:08:41.751Z,4.32
2023-02-03T08:11:09.044Z,4.10
2023-02-03T08:14:04.737Z,3.85
2023-02-03T08:16:52.631Z,3.85
2023-02-03T08:19:50.517Z,4.10
2023-02-03T08:22:30.383Z,4.20
2023-02-03T08:29:09.186Z,3.90
2023-02-03T08:32:01.380Z,3.50
2023-02-03T08:35:14.339Z,3.28
2023-02-03T08:37:41.513Z,3.08
2023-02-03T08:40:10.264Z,3.50
2023-02-03T08:42:37.618Z,3.13
2023-02-03T08:45:05.468Z,3.25
2023-02-03T08:47:36.932Z,3.22
2023-02-03T08:50:09.321Z,3.78
2023-02-03T08:52:36.309Z,3.10
2023-02-03T08:55:06.874Z,3.15
2023-02-03T08:57:36.477Z,3.17
2023-02-03T09:00:12.180Z,3.03
2023-02-03T09:02:39.629Z,3.33
2023-02-03T09:05:07.339Z,3.60
2023-02-03T09:07:34.329Z,3.40
2023-02-03T09:10:01.889Z,3.25
2023-02-03T09:12:28.752Z,3.30
2023-02-03T09:15:21.791Z,3.40
2023-02-03T09:17:49.177Z,3.17
2023-02-03T09:20:21.311Z,3.20
2023-02-03T09:23:01.590Z,2.97
2023-02-03T09:30:01.432Z,3.50
2023-02-03T09:32:34.207Z,3.58
2023-02-03T09:35:02.671Z,3.47
2023-02-03T09:37:38.524Z,3.92
2023-02-03T09:40:07.315Z,4.10
2023-02-03T09:43:06.709Z,4.07
2023-02-03T09:45:33.786Z,4.10
2023-02-03T09:48:21.296Z,3.63
2023-02-03T09:50:52.964Z,3.92
2023-02-03T09:53:45.876Z,4.20
2023-02-03T09:56:27.394Z,4.32
2023-02-03T09:58:57.139Z,3.92
2023-02-03T10:01:55.383Z,5.07
2023-02-03T10:04:42.023Z,4.47
2023-02-03T10:07:28.798Z,4.55
2023-02-03T10:10:30.133Z,4.07
2023-02-03T10:13:17.232Z,4.75
2023-02-03T10:18:42.214Z,3.88
2023-02-03T10:21:41.402Z,4.38
2023-02-03T10:24:56.419Z,4.30
2023-02-03T10:27:39.044Z,4.13
2023-02-03T10:31:14.429Z,4.60
2023-02-03T10:33:41.445Z,4.40
2023-02-03T10:37:05.967Z,4.80
2023-02-03T10:39:52.452Z,3.80
2023-02-03T10:42:52.653Z,3.63
2023-02-03T10:45:32.912Z,3.47
2023-02-03T10:52:04.562Z,3.92
2023-02-03T10:54:36.761Z,4.22
2023-02-03T10:57:14.870Z,3.97
2023-02-03T11:00:22.598Z,3.75
2023-02-03T11:03:00.850Z,3.70
2023-02-03T11:06:24.455Z,4.30
2023-02-03T11:08:52.639Z,3.95
2023-02-03T11:15:35.081Z,2.55
2023-02-03T11:18:02.315Z,2.67
2023-02-03T11:20:30.204Z,2.95
2023-02-03T11:23:05.868Z,3.10
2023-02-03T11:25:33.739Z,3.03
2023-02-03T11:28:07.973Z,3.95
2023-02-03T11:30:35.092Z,3.60
2023-02-03T11:33:03.741Z,3.25
2023-02-03T11:36:14.062Z,3.85
2023-02-03T11:38:42.697Z,3.22
2023-02-03T11:41:18.854Z,3.40
2023-02-03T11:43:49.056Z,2.75
2023-02-03T11:46:16.876Z,3.50
2023-02-03T11:53:13.947Z,2.92
2023-02-03T12:00:31.398Z,2.30
2023-02-03T12:03:50.279Z,2.83
2023-02-03T12:11:21.418Z,2.28
2023-02-03T12:14:18.817Z,2.17
2023-02-03T12:17:53.188Z,2.08
2023-02-03T12:20:53.373Z,1.92
2023-02-03T12:23:51.559Z,1.63
2023-02-03T12:26:43.011Z,1.75
2023-02-03T13:22:08.103Z,1.83
2023-02-03T13:24:35.484Z,1.92
2023-02-03T13:27:47.266Z,2.03
2023-02-03T13:31:00.536Z,1.80
2023-02-03T13:34:24.880Z,1.75
2023-02-03T13:36:57.935Z,1.77
2023-02-03T13:39:46.007Z,1.58
2023-02-03T13:42:34.482Z,1.60
2023-02-03T13:45:27.895Z,1.70
2023-02-03T13:57:02.634Z,2.72
2023-02-03T14:00:39.027Z,2.28
2023-02-03T14:04:34.246Z,1.95
2023-02-03T14:08:18.124Z,3.15
2023-02-03T14:10:45.381Z,2.20
2023-02-03T14:13:21.509Z,2.10
2023-02-03T14:16:22.548Z,2.50
2023-02-03T14:18:49.945Z,2.65
2023-02-03T14:21:48.521Z,2.15
2023-02-03T14:24:17.839Z,2.10
2023-02-03T14:26:57.401Z,2.17
2023-02-03T14:29:32.207Z,2.17
2023-02-03T14:32:48.283Z,3.03
2023-02-03T14:35:42.852Z,2.33
2023-02-03T14:38:19.054Z,3.30
2023-02-03T14:44:35.808Z,3.03
2023-02-03T14:47:29.893Z,2.30
2023-02-03T14:50:58.107Z,2.60
2023-02-03T14:54:12.233Z,2.83
2023-02-03T15:00:34.682Z,3.28
2023-02-03T15:03:10.852Z,3.33
2023-02-03T15:05:45.993Z,2.70
2023-02-03T15:08:46.975Z,2.78
2023-02-03T15:11:25.548Z,4.50
2023-02-03T15:13:54.062Z,3.78
2023-02-03T15:16:27.084Z,3.35
2023-02-03T15:19:19.955Z,2.75
2023-02-03T15:21:46.980Z,2.80
2023-02-03T15:24:23.004Z,4.35
2023-02-03T15:26:58.064Z,3.25
2023-02-03T15:29:34.314Z,3.92
2023-02-03T15:32:19.159Z,3.45
2023-02-03T15:34:50.305Z,4.00
2023-02-03T15:37:24.579Z,3.05
2023-02-03T15:40:23.447Z,3.22
2023-02-03T15:43:22.936Z,3.75
2023-02-03T15:46:03.408Z,3.33
2023-02-03T15:48:37.399Z,3.28
2023-02-03T15:51:11.248Z,3.20
2023-02-03T15:53:49.096Z,3.33
2023-02-03T15:56:42.613Z,4.20
2023-02-03T15:59:30.754Z,3.30
2023-02-03T16:01:59.785Z,3.20
2023-02-03T16:04:31.228Z,3.58
2023-02-03T16:07:01.902Z,4.00
2023-02-03T16:09:41.710Z,3.47
2023-02-03T16:12:16.377Z,4.00
2023-02-03T16:14:46.946Z,3.40
2023-02-03T16:17:35.650Z,3.05
2023-02-03T16:20:39.291Z,3.15
2023-02-03T16:23:22.806Z,3.47
2023-02-03T16:26:17.737Z,3.78
2023-02-03T16:29:27.331Z,3.70
2023-02-03T16:32:16.753Z,3.55
2023-02-03T16:35:03.325Z,3.50
2023-02-03T16:37:57.930Z,3.30
2023-02-03T16:40:43.395Z,3.88
2023-02-03T16:43:35.003Z,3.05
2023-02-03T16:46:20.543Z,3.55
2023-02-03T16:51:42.287Z,3.70
2023-02-03T16:54:14.864Z,3.47
2023-02-03T16:56:42.329Z,3.10
2023-02-03T16:59:09.904Z,3.63
2023-02-03T17:01:37.221Z,3.28
2023-02-03T17:04:04.435Z,3.28
2023-02-03T17:06:34.063Z,3.80
2023-02-03T17:09:01.087Z,3.75
2023-02-03T17:11:28.077Z,2.58
2023-02-03T17:13:55.189Z,2.95
2023-02-03T17:16:25.817Z,3.03
2023-02-03T17:19:00.508Z,4.05
2023-02-03T17:21:29.528Z,3.85
2023-02-03T17:23:59.384Z,2.85
2023-02-03T17:26:27.805Z,3.10
2023-02-03T17:28:54.878Z,4.25
2023-02-03T17:31:22.156Z,3.35
2023-02-03T17:33:52.795Z,4.47
2023-02-03T17:36:22.110Z,4.25
2023-02-03T18:00:24.693Z,3.33
2023-02-03T18:02:55.475Z,3.25
2023-02-03T18:05:23.255Z,3.08
2023-02-03T18:07:50.417Z,3.28
2023-02-03T18:10:17.552Z,3.05
2023-02-03T18:12:44.491Z,3.63
2023-02-03T18:15:13.596Z,3.75
2023-02-03T18:17:41.629Z,3.10
2023-02-03T18:20:09.776Z,2.47
2023-02-03T18:22:36.702Z,2.83
2023-02-03T18:25:04.119Z,4.03
2023-02-03T18:27:31.122Z,3.25
2023-02-03T18:30:00.561Z,2.83
2023-02-03T18:32:27.468Z,3.33
2023-02-03T18:34:54.391Z,3.70
2023-02-03T18:37:21.253Z,4.65
2023-02-03T18:39:48.254Z,3.00
2023-02-03T18:42:15.338Z,3.70
2023-02-03T18:44:44.061Z,3.22
2023-02-03T18:47:11.024Z,3.42
2023-02-03T18:49:39.288Z,3.80
2023-02-03T18:52:06.803Z,3.45
2023-02-03T18:54:33.876Z,2.78
2023-02-03T18:57:02.748Z,3.33
2023-02-03T18:59:30.111Z,2.80
2023-02-03T19:01:57.150Z,3.38
2023-02-03T19:04:24.056Z,3.05
2023-02-03T19:06:52.572Z,2.75
2023-02-03T19:09:22.241Z,3.35
2023-02-03T19:11:49.485Z,3.42
2023-02-03T19:14:20.062Z,3.60
2023-02-03T19:16:50.312Z,2.90
2023-02-03T19:19:17.245Z,3.20
2023-02-03T19:21:44.192Z,3.63
2023-02-03T19:24:13.987Z,3.38
2023-02-03T19:26:40.989Z,2.75
2023-02-03T19:29:08.501Z,3.35
2023-02-03T19:31:38.298Z,3.50
2023-02-03T19:34:05.920Z,3.45
2023-02-03T19:36:32.967Z,3.17
2023-02-03T19:38:59.889Z,3.17
2023-02-03T19:41:27.646Z,3.25
2023-02-03T19:43:54.895Z,3.08
2023-02-03T19:46:22.183Z,3.83
2023-02-03T19:48:49.745Z,3.67
2023-02-03T19:51:17.360Z,3.55
2023-02-03T19:53:44.345Z,3.30
2023-02-03T19:56:11.555Z,3.33
2023-02-03T19:58:39.282Z,3.50
2023-02-03T20:01:06.768Z,3.30
2023-02-03T20:03:33.811Z,3.67
2023-02-03T20:06:01.223Z,3.42
2023-02-03T20:08:28.377Z,3.53
2023-02-03T20:10:56.232Z,3.20
2023-02-03T20:13:23.290Z,3.35
2023-02-03T20:15:50.334Z,2.88
2023-02-03T20:18:17.381Z,2.90
2023-02-03T20:20:44.307Z,3.05
2023-02-03T20:23:13.711Z,3.05
2023-02-03T20:25:40.908Z,2.92
2023-02-03T20:28:08.106Z,3.13
2023-02-03T20:30:38.473Z,3.35
2023-02-03T20:33:05.567Z,3.85
2023-02-03T20:35:32.957Z,3.95
2023-02-03T20:38:00.445Z,3.20
2023-02-03T20:40:36.720Z,4.32
2023-02-03T20:43:24.693Z,3.63
2023-02-03T20:45:52.855Z,3.20
2023-02-03T20:48:25.452Z,3.80
2023-02-03T20:50:56.272Z,3.08
2023-02-03T20:53:26.274Z,3.45
2023-02-03T20:56:00.145Z,3.50
2023-02-03T20:58:33.684Z,3.30
2023-02-03T21:01:00.923Z,2.85
2023-02-03T21:03:46.354Z,4.35
2023-02-03T21:06:20.509Z,3.55
2023-02-03T21:08:48.524Z,3.05
2023-02-03T21:11:19.464Z,3.88
2023-02-03T21:13:49.792Z,3.35
2023-02-03T21:16:24.633Z,3.70
2023-02-03T21:19:00.247Z,4.45
2023-02-03T21:21:40.322Z,4.35
2023-02-03T21:24:36.787Z,3.75
2023-02-03T21:27:30.856Z,3.38
2023-02-03T21:30:03.737Z,3.92
2023-02-03T21:32:40.809Z,3.30
2023-02-03T21:35:34.724Z,4.18
2023-02-03T21:38:28.637Z,3.95
2023-02-03T21:40:55.555Z,3.10
2023-02-03T21:43:24.561Z,2.72
2023-02-03T21:45:51.774Z,3.33
2023-02-03T21:48:37.481Z,3.35
2023-02-03T21:53:55.493Z,2.95
2023-02-03T21:56:25.144Z,3.10
2023-02-03T21:58:58.759Z,2.88
2023-02-03T22:01:32.290Z,3.50
2023-02-03T22:04:01.553Z,4.10
2023-02-03T22:06:43.567Z,2.92
2023-02-03T22:09:19.456Z,3.88
2023-02-03T22:11:46.681Z,4.47
2023-02-03T22:14:16.459Z,3.67
2023-02-03T22:16:44.577Z,3.33
2023-02-03T22:19:11.706Z,3.55
2023-02-03T22:21:39.086Z,2.72
2023-02-03T22:24:06.597Z,3.35
2023-02-03T22:26:33.559Z,3.40
2023-02-03T22:29:00.739Z,4.22
2023-02-03T22:31:27.735Z,3.45
2023-02-03T22:33:54.743Z,3.67
2023-02-03T22:36:23.466Z,3.83
2023-02-03T22:38:50.574Z,4.05
2023-02-03T22:41:17.535Z,3.40
2023-02-03T22:43:44.489Z,3.20
2023-02-03T22:46:11.661Z,3.97
2023-02-03T22:48:38.586Z,3.40
2023-02-03T22:51:05.935Z,2.95
2023-02-03T22:53:32.904Z,3.35
2023-02-03T22:55:59.849Z,3.97
2023-02-03T22:58:26.789Z,3.03
2023-02-03T23:00:53.655Z,3.08
2023-02-03T23:03:20.540Z,3.05
2023-02-03T23:05:47.411Z,2.33
2023-02-03T23:08:14.310Z,3.03
2023-02-03T23:10:41.403Z,2.92
2023-02-03T23:13:08.396Z,3.10
2023-02-03T23:15:35.713Z,3.42
2023-02-03T23:18:02.863Z,2.90
2023-02-03T23:20:30.195Z,3.50
2023-02-03T23:22:57.455Z,3.03
2023-02-03T23:25:24.409Z,2.90
2023-02-03T23:27:51.391Z,3.50
2023-02-03T23:30:18.672Z,3.97
2023-02-03T23:32:47.987Z,3.08
2023-02-03T23:35:43.927Z,3.90
2023-02-03T23:38:10.908Z,3.58
2023-02-03T23:40:37.906Z,3.15
2023-02-03T23:43:05.408Z,2.75
2023-02-03T23:45:32.343Z,4.43
2023-02-03T23:47:59.558Z,3.40
2023-02-03T23:50:26.424Z,4.35
2023-02-03T23:52:53.424Z,3.40
2023-02-03T23:55:21.832Z,2.65
2023-02-03T23:57:49.122Z,1.95
